createdAt,value
2023-01-28T00:00:59.091Z,13.27
2023-01-28T00:03:25.964Z,4.65
2023-01-28T00:05:54.343Z,3.67
2023-01-28T00:08:21.189Z,3.38
2023-01-28T00:10:48.066Z,3.95
2023-01-28T00:13:15.052Z,3.10
2023-01-28T00:15:42.504Z,2.70
2023-01-28T00:18:09.418Z,3.47
2023-01-28T00:20:36.660Z,2.65
2023-01-28T00:23:06.443Z,2.55
2023-01-28T00:25:33.341Z,2.70
2023-01-28T00:28:00.248Z,2.72
2023-01-28T00:30:27.074Z,2.70
2023-01-28T00:32:55.226Z,2.13
2023-01-28T00:35:22.072Z,2.05
2023-01-28T00:37:49.010Z,2.08
2023-01-28T00:40:16.101Z,1.75
2023-01-28T00:42:43.038Z,1.95
2023-01-28T00:45:10.258Z,1.40
2023-01-28T00:47:37.878Z,2.20
2023-01-28T00:50:05.302Z,1.98
2023-01-28T00:52:32.368Z,2.08
2023-01-28T00:54:59.249Z,2.38
2023-01-28T00:57:27.007Z,2.10
2023-01-28T00:59:53.991Z,2.72
2023-01-28T01:02:22.182Z,2.25
2023-01-28T01:05:01.405Z,2.30
2023-01-28T01:07:41.964Z,2.25
2023-01-28T01:10:15.089Z,2.55
2023-01-28T01:12:42.149Z,2.78
2023-01-28T01:15:10.565Z,2.83
2023-01-28T01:17:42.720Z,2.38
2023-01-28T01:20:15.480Z,2.60
2023-01-28T01:22:42.489Z,2.88
2023-01-28T01:25:14.678Z,2.72
2023-01-28T01:27:42.557Z,3.13
2023-01-28T01:30:10.664Z,3.58
2023-01-28T01:32:37.542Z,2.80
2023-01-28T01:35:06.891Z,3.30
2023-01-28T01:37:35.512Z,3.78
2023-01-28T01:40:05.149Z,3.42
2023-01-28T01:42:33.338Z,3.90
2023-01-28T01:45:06.261Z,3.55
2023-01-28T01:47:49.281Z,4.03
2023-01-28T01:50:36.807Z,3.85
2023-01-28T01:53:11.652Z,4.88
2023-01-28T01:55:41.462Z,3.75
2023-01-28T01:58:13.746Z,3.58
2023-01-28T02:00:42.782Z,3.28
2023-01-28T02:03:11.464Z,3.85
2023-01-28T02:05:39.611Z,3.38
2023-01-28T02:08:22.101Z,3.00
2023-01-28T02:10:53.254Z,2.85
2023-01-28T02:13:25.392Z,4.57
2023-01-28T02:15:53.248Z,3.00
2023-01-28T02:18:20.260Z,3.47
2023-01-28T02:21:09.139Z,3.00
2023-01-28T02:24:03.164Z,3.28
2023-01-28T02:27:17.905Z,3.22
2023-01-28T02:30:14.609Z,3.58
2023-01-28T02:32:53.678Z,3.83
2023-01-28T02:35:26.563Z,3.33
2023-01-28T02:38:15.373Z,3.10
2023-01-28T02:41:09.013Z,3.53
2023-01-28T02:43:40.672Z,2.88
2023-01-28T02:46:35.306Z,3.13
2023-01-28T02:49:05.859Z,3.03
2023-01-28T02:51:51.085Z,2.70
2023-01-28T02:54:47.139Z,2.63
2023-01-28T02:57:47.353Z,3.42
2023-01-28T03:00:32.955Z,2.67
2023-01-28T03:03:07.477Z,4.00
2023-01-28T03:08:27.937Z,3.40
2023-01-28T03:11:17.492Z,3.83
2023-01-28T03:28:37.322Z,4.00
2023-01-28T03:31:30.494Z,4.38
2023-01-28T03:34:19.314Z,4.28
2023-01-28T03:36:50.845Z,4.70
2023-01-28T03:39:38.798Z,3.97
2023-01-28T03:42:12.036Z,4.18
2023-01-28T03:45:04.203Z,4.45
2023-01-28T03:47:33.364Z,4.05
2023-01-28T03:50:02.786Z,4.70
2023-01-28T03:52:35.634Z,4.05
2023-01-28T03:55:25.836Z,5.57
2023-01-28T03:57:53.308Z,4.45
2023-01-28T04:00:22.057Z,5.35
2023-01-28T04:02:49.718Z,5.40
2023-01-28T04:05:20.403Z,5.13
2023-01-28T04:07:51.705Z,5.05
2023-01-28T04:10:26.145Z,5.38
2023-01-28T04:13:04.246Z,5.10
2023-01-28T04:15:31.316Z,4.80
2023-01-28T04:17:58.980Z,4.95
2023-01-28T04:20:29.797Z,5.18
2023-01-28T04:22:59.450Z,5.57
2023-01-28T04:25:26.575Z,4.95
2023-01-28T04:27:54.261Z,4.82
2023-01-28T04:30:23.262Z,4.70
2023-01-28T04:33:16.610Z,4.68
2023-01-28T04:35:54.855Z,4.72
2023-01-28T04:38:40.166Z,4.68
2023-01-28T04:41:27.276Z,6.90
2023-01-28T04:43:58.070Z,7.97
2023-01-28T04:46:45.216Z,3.90
2023-01-28T04:49:44.388Z,4.88
2023-01-28T04:52:26.487Z,3.83
2023-01-28T04:55:04.734Z,4.15
2023-01-28T04:57:31.557Z,4.55
2023-01-28T04:59:58.855Z,4.20
2023-01-28T05:02:27.116Z,3.58
2023-01-28T05:04:54.110Z,4.30
2023-01-28T05:07:42.467Z,4.40
2023-01-28T05:10:10.187Z,4.18
2023-01-28T05:12:37.463Z,3.80
2023-01-28T05:15:08.197Z,4.82
2023-01-28T05:17:35.687Z,3.63
2023-01-28T05:20:02.570Z,4.53
2023-01-28T05:22:29.477Z,4.78
2023-01-28T05:25:10.689Z,4.40
2023-01-28T05:27:38.150Z,4.65
2023-01-28T05:30:06.885Z,3.75
2023-01-28T05:32:33.918Z,3.90
2023-01-28T05:35:00.861Z,3.85
2023-01-28T05:37:28.067Z,4.30
2023-01-28T05:39:56.525Z,4.65
2023-01-28T05:42:23.376Z,4.28
2023-01-28T05:44:55.671Z,5.13
2023-01-28T05:47:38.897Z,4.53
2023-01-28T05:50:38.032Z,4.85
2023-01-28T05:53:18.471Z,5.10
2023-01-28T05:55:51.191Z,4.78
2023-01-28T05:58:18.301Z,5.30
2023-01-28T06:00:45.248Z,5.82
2023-01-28T06:03:13.323Z,5.43
2023-01-28T06:05:40.356Z,4.45
2023-01-28T06:08:07.703Z,4.85
2023-01-28T06:10:35.997Z,4.82
2023-01-28T06:13:03.005Z,5.20
2023-01-28T06:15:35.541Z,5.35
2023-01-28T06:18:11.975Z,4.45
2023-01-28T06:20:38.831Z,4.65
2023-01-28T06:23:06.521Z,4.72
2023-01-28T06:25:33.406Z,6.25
2023-01-28T06:28:06.366Z,5.40
2023-01-28T06:30:33.403Z,5.10
2023-01-28T06:33:00.411Z,5.13
2023-01-28T06:35:27.707Z,6.05
2023-01-28T06:37:54.711Z,5.88
2023-01-28T06:40:23.129Z,5.22
2023-01-28T06:42:50.090Z,5.78
2023-01-28T06:45:17.032Z,6.32
2023-01-28T06:47:43.905Z,5.45
2023-01-28T06:50:11.367Z,5.32
2023-01-28T06:52:38.202Z,6.07
2023-01-28T06:55:05.377Z,5.28
2023-01-28T06:57:32.475Z,5.00
2023-01-28T06:59:59.316Z,5.03
2023-01-28T07:02:27.743Z,5.38
2023-01-28T07:04:54.720Z,5.30
2023-01-28T07:07:21.538Z,5.68
2023-01-28T07:09:48.392Z,6.53
2023-01-28T07:12:15.769Z,5.25
2023-01-28T07:14:42.635Z,5.40
2023-01-28T07:17:09.690Z,6.18
2023-01-28T07:19:36.841Z,5.38
2023-01-28T07:22:04.182Z,5.07
2023-01-28T07:24:31.511Z,5.07
2023-01-28T07:26:58.402Z,5.32
2023-01-28T07:29:25.314Z,5.68
2023-01-28T07:31:52.280Z,5.72
2023-01-28T07:34:19.057Z,7.00
2023-01-28T07:36:45.943Z,7.10
2023-01-28T07:39:12.813Z,6.57
2023-01-28T07:41:39.704Z,8.30
2023-01-28T07:44:07.260Z,6.28
2023-01-28T07:46:34.263Z,8.15
2023-01-28T07:49:01.168Z,9.68
2023-01-28T07:51:27.905Z,8.30
2023-01-28T07:53:54.763Z,7.45
2023-01-28T07:56:21.699Z,7.95
2023-01-28T07:58:51.643Z,7.80
2023-01-28T08:01:19.784Z,7.22
2023-01-28T08:03:46.686Z,7.30
2023-01-28T08:06:13.561Z,10.32
2023-01-28T08:08:40.410Z,9.25
2023-01-28T08:11:09.029Z,8.98
2023-01-28T08:13:35.880Z,7.65
2023-01-28T08:16:03.282Z,9.07
2023-01-28T08:18:30.648Z,7.85
2023-01-28T08:20:58.642Z,8.63
2023-01-28T08:23:30.404Z,7.88
2023-01-28T08:25:59.350Z,7.63
2023-01-28T08:28:26.616Z,8.82
2023-01-28T08:30:54.172Z,7.53
2023-01-28T08:33:21.321Z,10.38
2023-01-28T08:35:48.182Z,9.90
2023-01-28T08:38:18.091Z,9.27
2023-01-28T08:40:44.973Z,9.05
2023-01-28T08:43:11.912Z,10.30
2023-01-28T08:45:40.639Z,8.45
2023-01-28T08:48:11.795Z,9.65
2023-01-28T08:50:39.631Z,10.05
2023-01-28T08:53:10.330Z,9.00
2023-01-28T08:55:37.192Z,9.30
2023-01-28T08:58:11.255Z,11.07
2023-01-28T09:00:38.821Z,10.10
2023-01-28T09:03:06.453Z,9.45
2023-01-28T09:05:35.181Z,9.23
2023-01-28T09:08:06.760Z,9.32
2023-01-28T09:10:35.235Z,8.60
2023-01-28T09:13:09.679Z,9.45
2023-01-28T09:18:03.664Z,9.05
2023-01-28T09:20:32.395Z,8.48
2023-01-28T09:23:00.932Z,8.10
2023-01-28T09:25:28.009Z,9.57
2023-01-28T09:27:54.943Z,9.35
2023-01-28T09:30:22.252Z,8.40
2023-01-28T09:32:56.207Z,9.27
2023-01-28T09:35:23.116Z,10.05
2023-01-28T09:37:52.027Z,9.50
2023-01-28T09:40:35.115Z,10.13
2023-01-28T09:43:08.833Z,9.43
2023-01-28T09:45:46.001Z,9.50
2023-01-28T09:48:30.957Z,9.45
2023-01-28T09:50:58.251Z,9.73
2023-01-28T09:53:30.676Z,10.23
2023-01-28T09:56:14.574Z,10.57
2023-01-28T09:58:43.015Z,11.63
2023-01-28T10:01:09.995Z,9.82
2023-01-28T10:04:14.280Z,10.73
2023-01-28T10:06:41.153Z,11.27
2023-01-28T10:09:26.335Z,10.43
2023-01-28T10:12:21.296Z,10.75
2023-01-28T10:15:09.656Z,10.45
2023-01-28T10:17:50.073Z,11.00
2023-01-28T10:20:31.051Z,11.00
2023-01-28T10:23:16.632Z,12.50
2023-01-28T10:25:48.462Z,12.05
2023-01-28T10:28:28.358Z,10.75
2023-01-28T10:30:55.721Z,11.00
2023-01-28T10:33:37.434Z,11.98
2023-01-28T10:36:05.076Z,12.82
2023-01-28T10:38:32.312Z,11.75
2023-01-28T10:41:02.649Z,12.27
2023-01-28T10:43:35.573Z,10.02
2023-01-28T10:46:08.332Z,12.10
2023-01-28T10:49:01.295Z,10.75
2023-01-28T10:51:38.256Z,11.60
2023-01-28T10:54:21.080Z,10.27
2023-01-28T10:56:52.172Z,11.00
2023-01-28T10:59:27.316Z,12.20
2023-01-28T11:01:57.966Z,10.68
2023-01-28T11:04:33.617Z,10.52
2023-01-28T11:07:16.931Z,12.68
2023-01-28T11:09:49.192Z,11.15
2023-01-28T11:12:24.069Z,10.73
2023-01-28T11:14:53.641Z,11.82
2023-01-28T11:17:24.780Z,12.05
2023-01-28T11:19:58.400Z,11.80
2023-01-28T11:22:25.148Z,11.63
2023-01-28T11:24:52.228Z,11.45
2023-01-28T11:27:26.678Z,11.77
2023-01-28T11:32:26.943Z,10.90
2023-01-28T11:34:57.607Z,10.50
2023-01-28T11:37:26.350Z,11.85
2023-01-28T11:40:20.075Z,11.18
2023-01-28T11:42:49.162Z,11.98
2023-01-28T11:45:18.464Z,11.48
2023-01-28T11:48:03.806Z,10.68
2023-01-28T11:50:37.391Z,11.90
2023-01-28T11:53:46.341Z,12.30
2023-01-28T12:06:27.237Z,12.60
2023-01-28T12:09:00.746Z,13.25
2023-01-28T12:12:11.839Z,11.97
2023-01-28T12:14:57.048Z,12.52
2023-01-28T12:17:36.153Z,12.57
2023-01-28T12:20:19.973Z,14.35
2023-01-28T12:22:46.757Z,12.93
2023-01-28T12:25:37.151Z,12.05
2023-01-28T12:28:12.952Z,13.60
2023-01-28T12:31:07.304Z,13.60
2023-01-28T12:33:52.081Z,13.98
2023-01-28T12:39:13.755Z,14.07
2023-01-28T12:41:46.264Z,12.63
2023-01-28T12:44:27.032Z,12.85
2023-01-28T12:47:04.012Z,13.18
2023-01-28T12:50:06.551Z,12.90
2023-01-28T12:52:39.935Z,14.55
2023-01-28T12:55:25.364Z,12.77
2023-01-28T12:57:53.961Z,12.15
2023-01-28T13:00:45.482Z,13.10
2023-01-28T13:03:38.907Z,13.65
2023-01-28T13:06:15.704Z,12.75
2023-01-28T13:08:42.708Z,12.80
2023-01-28T13:11:17.323Z,12.73
2023-01-28T13:13:46.800Z,12.88
2023-01-28T13:16:14.048Z,14.63
2023-01-28T13:18:41.019Z,14.15
2023-01-28T13:21:47.524Z,16.70
2023-01-28T13:24:15.652Z,14.95
2023-01-28T13:26:59.011Z,13.70
2023-01-28T13:29:26.171Z,13.13
2023-01-28T13:32:02.970Z,12.67
2023-01-28T13:34:44.330Z,13.55
2023-01-28T13:37:37.956Z,13.90
2023-01-28T13:40:13.696Z,13.02
2023-01-28T13:42:42.010Z,12.82
2023-01-28T13:45:18.057Z,13.10
2023-01-28T13:47:48.264Z,13.40
2023-01-28T13:50:40.136Z,13.73
2023-01-28T13:53:25.319Z,12.98
2023-01-28T13:55:57.568Z,14.73
2023-01-28T13:58:45.582Z,12.75
2023-01-28T14:01:32.605Z,13.38
2023-01-28T14:04:39.556Z,13.05
2023-01-28T14:07:29.622Z,13.77
2023-01-28T14:10:39.557Z,13.70
2023-01-28T14:13:21.599Z,14.27
2023-01-28T14:16:52.627Z,14.32
2023-01-28T14:19:27.616Z,13.90
2023-01-28T14:21:55.058Z,14.48
2023-01-28T14:24:22.413Z,14.02
2023-01-28T14:27:15.360Z,13.60
2023-01-28T14:30:03.590Z,13.90
2023-01-28T14:32:31.835Z,12.75
2023-01-28T14:35:05.567Z,13.35
2023-01-28T14:37:33.342Z,14.10
2023-01-28T14:40:06.510Z,16.25
2023-01-28T14:42:39.684Z,14.13
2023-01-28T14:45:38.927Z,14.32
2023-01-28T14:48:25.593Z,13.70
2023-01-28T14:51:08.351Z,14.18
2023-01-28T14:54:09.540Z,13.98
2023-01-28T14:57:00.730Z,13.40
2023-01-28T14:59:44.200Z,14.75
2023-01-28T15:02:22.907Z,15.27
2023-01-28T15:04:51.536Z,13.93
2023-01-28T15:07:24.556Z,13.20
2023-01-28T15:10:15.998Z,13.30
2023-01-28T15:12:48.034Z,14.05
2023-01-28T15:15:36.600Z,13.13
2023-01-28T15:30:27.577Z,11.30
2023-01-28T15:33:02.064Z,11.60
2023-01-28T15:37:57.027Z,12.57
2023-01-28T15:40:26.050Z,13.35
2023-01-28T15:42:55.406Z,14.30
2023-01-28T15:45:25.707Z,12.80
2023-01-28T15:48:02.861Z,15.23
2023-01-28T15:50:29.915Z,14.18
2023-01-28T15:52:57.097Z,15.63
2023-01-28T15:55:29.842Z,15.10
2023-01-28T15:57:57.080Z,14.40
2023-01-28T16:00:25.839Z,13.07
2023-01-28T16:02:55.315Z,14.70
2023-01-28T16:05:34.717Z,14.82
2023-01-28T16:08:10.280Z,13.73
2023-01-28T16:10:37.809Z,13.45
2023-01-28T16:13:20.360Z,13.77
2023-01-28T16:15:50.288Z,15.07
2023-01-28T16:18:37.548Z,13.32
2023-01-28T16:21:05.423Z,14.50
2023-01-28T16:23:32.327Z,14.52
2023-01-28T16:26:23.065Z,13.90
2023-01-28T16:28:50.099Z,13.43
2023-01-28T16:31:17.484Z,15.73
2023-01-28T16:33:44.545Z,15.45
2023-01-28T16:36:18.225Z,15.60
2023-01-28T16:38:45.877Z,16.65
2023-01-28T16:41:16.086Z,14.35
2023-01-28T16:43:42.931Z,15.23
2023-01-28T16:46:12.587Z,12.43
2023-01-28T16:48:39.620Z,13.80
2023-01-28T16:51:06.743Z,15.00
2023-01-28T16:53:34.562Z,13.88
2023-01-28T16:56:02.636Z,14.90
2023-01-28T16:58:29.757Z,15.95
2023-01-28T17:00:56.993Z,15.10
2023-01-28T17:03:24.899Z,14.52
2023-01-28T17:05:51.825Z,15.50
2023-01-28T17:08:18.834Z,13.05
2023-01-28T17:10:45.868Z,17.08
2023-01-28T17:13:12.808Z,16.98
2023-01-28T17:15:39.711Z,16.77
2023-01-28T17:18:06.677Z,15.40
2023-01-28T17:20:37.534Z,15.88
2023-01-28T17:23:07.131Z,16.65
2023-01-28T17:25:39.079Z,16.23
2023-01-28T17:28:07.107Z,17.58
2023-01-28T17:30:36.913Z,16.80
2023-01-28T17:33:04.781Z,16.63
2023-01-28T17:35:31.650Z,15.25
2023-01-28T17:37:58.554Z,15.77
2023-01-28T17:40:25.622Z,14.77
2023-01-28T17:42:52.654Z,15.43
2023-01-28T17:45:19.593Z,14.43
2023-01-28T17:47:46.513Z,12.32
2023-01-28T17:50:13.409Z,14.90
2023-01-28T17:52:41.236Z,12.70
2023-01-28T17:55:10.384Z,13.57
2023-01-28T17:57:37.372Z,14.13
2023-01-28T18:00:06.060Z,14.05
2023-01-28T18:05:06.227Z,12.65
2023-01-28T18:07:33.123Z,14.05
2023-01-28T18:10:00.242Z,12.93
2023-01-28T18:12:27.315Z,14.93
2023-01-28T18:14:54.193Z,15.18
2023-01-28T18:17:26.738Z,16.13
2023-01-28T18:19:53.793Z,19.15
2023-01-28T18:22:20.738Z,16.83
2023-01-28T18:24:47.985Z,16.42
2023-01-28T18:27:14.959Z,15.73
2023-01-28T18:29:41.819Z,17.98
2023-01-28T18:32:08.889Z,15.73
2023-01-28T18:34:35.993Z,17.73
2023-01-28T18:37:03.760Z,19.15
2023-01-28T18:39:31.210Z,19.65
2023-01-28T18:41:59.147Z,17.75
2023-01-28T18:44:28.334Z,20.00
2023-01-28T18:46:56.293Z,19.88
2023-01-28T18:49:23.223Z,19.10
2023-01-28T18:51:50.186Z,20.35
2023-01-28T18:54:17.388Z,18.67
2023-01-28T18:56:44.993Z,18.67
2023-01-28T18:59:13.996Z,17.85
2023-01-28T19:01:47.990Z,18.45
2023-01-28T19:04:15.819Z,18.02
2023-01-28T19:06:43.284Z,18.52
2023-01-28T19:09:11.505Z,19.83
2023-01-28T19:11:40.745Z,20.05
2023-01-28T19:14:13.446Z,18.63
2023-01-28T19:16:40.529Z,19.27
2023-01-28T19:19:07.873Z,19.17
2023-01-28T19:21:35.024Z,19.98
2023-01-28T19:24:09.355Z,20.55
2023-01-28T19:26:37.037Z,19.65
2023-01-28T19:29:07.805Z,18.98
2023-01-28T19:31:34.981Z,20.00
2023-01-28T19:34:01.934Z,16.83
2023-01-28T19:36:31.428Z,17.90
2023-01-28T19:39:04.863Z,17.58
2023-01-28T19:41:32.036Z,16.95
2023-01-28T19:43:59.440Z,15.20
2023-01-28T19:46:26.890Z,15.70
2023-01-28T19:48:54.106Z,14.85
2023-01-28T19:51:21.782Z,14.98
2023-01-28T19:53:54.259Z,14.27
2023-01-28T19:56:23.972Z,14.27
2023-01-28T19:58:53.148Z,14.02
2023-01-28T20:01:29.529Z,13.15
2023-01-28T20:03:59.345Z,14.20
2023-01-28T20:06:28.303Z,13.70
2023-01-28T20:08:58.511Z,14.32
2023-01-28T20:11:25.713Z,13.32
2023-01-28T20:13:56.024Z,14.15
2023-01-28T20:16:28.708Z,13.88
2023-01-28T20:18:57.875Z,13.80
2023-01-28T20:21:25.552Z,13.98
2023-01-28T20:23:54.770Z,13.98
2023-01-28T20:26:33.137Z,14.20
2023-01-28T20:29:02.612Z,13.18
2023-01-28T20:31:29.706Z,13.15
2023-01-28T20:33:56.665Z,15.40
2023-01-28T20:36:23.522Z,14.70
2023-01-28T20:38:50.383Z,14.93
2023-01-28T20:41:23.351Z,15.18
2023-01-28T20:43:51.788Z,15.90
2023-01-28T20:46:27.875Z,14.90
2023-01-28T20:48:56.662Z,15.10
2023-01-28T20:51:25.836Z,14.15
2023-01-28T20:53:53.720Z,15.65
2023-01-28T20:56:25.414Z,16.05
2023-01-28T20:58:59.638Z,14.85
2023-01-28T21:01:29.588Z,15.30
2023-01-28T21:03:56.999Z,15.05
2023-01-28T21:06:25.149Z,14.43
2023-01-28T21:08:53.239Z,15.73
2023-01-28T21:11:21.998Z,14.82
2023-01-28T21:13:49.082Z,15.55
2023-01-28T21:16:16.348Z,14.50
2023-01-28T21:18:43.356Z,14.80
2023-01-28T21:21:17.930Z,16.00
2023-01-28T21:26:11.687Z,14.30
2023-01-28T21:28:38.993Z,12.70
2023-01-28T21:31:11.361Z,13.82
2023-01-28T21:33:38.753Z,13.70
2023-01-28T21:36:11.142Z,12.85
2023-01-28T21:38:38.384Z,11.45
2023-01-28T21:41:06.009Z,13.98
2023-01-28T21:43:33.630Z,13.27
2023-01-28T21:46:01.498Z,12.88
2023-01-28T21:48:28.531Z,13.07
2023-01-28T21:51:14.116Z,13.40
2023-01-28T21:53:42.032Z,13.23
2023-01-28T21:56:10.038Z,12.15
2023-01-28T21:58:56.855Z,12.15
2023-01-28T22:01:23.868Z,12.05
2023-01-28T22:03:50.676Z,12.77
2023-01-28T22:06:17.712Z,12.50
2023-01-28T22:08:45.658Z,11.95
2023-01-28T22:11:12.479Z,12.20
2023-01-28T22:13:39.625Z,12.15
2023-01-28T22:16:06.960Z,11.43
2023-01-28T22:18:33.901Z,12.07
2023-01-28T22:21:06.406Z,12.10
2023-01-28T22:23:35.188Z,11.20
2023-01-28T22:26:02.647Z,11.98
2023-01-28T22:28:29.781Z,11.95
2023-01-28T22:31:06.638Z,12.40
2023-01-28T22:33:33.838Z,11.73
2023-01-28T22:36:01.433Z,12.27
2023-01-28T22:38:28.287Z,12.02
2023-01-28T22:40:55.136Z,12.05
2023-01-28T22:43:22.736Z,11.98
2023-01-28T22:45:58.116Z,11.88
2023-01-28T22:48:25.010Z,12.23
2023-01-28T22:50:52.841Z,12.25
2023-01-28T22:53:19.705Z,11.02
2023-01-28T22:55:50.883Z,11.23
2023-01-28T22:58:17.788Z,12.15
2023-01-28T23:00:44.660Z,12.38
2023-01-28T23:03:11.540Z,11.77
2023-01-28T23:05:38.628Z,11.05
2023-01-28T23:08:14.062Z,12.20
2023-01-28T23:10:53.172Z,12.15
2023-01-28T23:13:21.502Z,11.48
2023-01-28T23:16:08.412Z,12.25
2023-01-28T23:18:42.013Z,11.93
2023-01-28T23:21:44.053Z,11.20
2023-01-28T23:24:19.137Z,12.10
2023-01-28T23:26:57.016Z,11.00
2023-01-28T23:29:26.066Z,12.30
2023-01-28T23:31:56.373Z,11.77
2023-01-28T23:34:26.115Z,11.38
2023-01-28T23:36:53.032Z,11.35
2023-01-28T23:39:19.947Z,10.35
2023-01-28T23:41:46.756Z,11.80
2023-01-28T23:44:13.664Z,11.70
2023-01-28T23:46:40.641Z,10.50
2023-01-28T23:49:09.813Z,11.38
2023-01-28T23:51:36.678Z,11.90
2023-01-28T23:54:04.234Z,11.48
2023-01-28T23:56:31.053Z,10.13
2023-01-28T23:58:59.971Z,10.48
